sensor_id;sensor_type;location;lat;lon;timestamp;temperature;humidity
19483;DHT22;9882;51.166;6.992;2023-08-30T00:00:21;18.90;99.90
19483;DHT22;9882;51.166;6.992;2023-08-30T00:02:51;18.90;99.90
19483;DHT22;9882;51.166;6.992;2023-08-30T00:05:22;18.90;99.90
19483;DHT22;9882;51.166;6.992;2023-08-30T00:07:55;18.90;99.90
19483;DHT22;9882;51.166;6.992;2023-08-30T00:10:26;18.80;99.90
19483;DHT22;9882;51.166;6.992;2023-08-30T00:13:01;18.80;99.90
19483;DHT22;9882;51.166;6.992;2023-08-30T00:15:31;18.80;99.90
19483;DHT22;9882;51.166;6.992;2023-08-30T00:18:01;18.80;99.90
19483;DHT22;9882;51.166;6.992;2023-08-30T00:20:32;18.70;99.90
19483;DHT22;9882;51.166;6.992;2023-08-30T00:23:02;18.80;99.90
19483;DHT22;9882;51.166;6.992;2023-08-30T00:25:32;18.70;99.90
19483;DHT22;9882;51.166;6.992;2023-08-30T00:28:03;18.70;99.90
19483;DHT22;9882;51.166;6.992;2023-08-30T00:30:34;18.70;99.90
19483;DHT22;9882;51.166;6.992;2023-08-30T00:33:04;18.70;99.90
19483;DHT22;9882;51.166;6.992;2023-08-30T00:35:33;18.60;99.90
19483;DHT22;9882;51.166;6.992;2023-08-30T00:38:03;18.60;99.90
19483;DHT22;9882;51.166;6.992;2023-08-30T00:40:38;18.60;99.90
19483;DHT22;9882;51.166;6.992;2023-08-30T00:43:11;18.60;99.90
19483;DHT22;9882;51.166;6.992;2023-08-30T00:45:40;18.60;99.90
19483;DHT22;9882;51.166;6.992;2023-08-30T00:48:10;18.50;99.90
19483;DHT22;9882;51.166;6.992;2023-08-30T00:50:40;18.50;99.90
19483;DHT22;9882;51.166;6.992;2023-08-30T00:53:11;18.50;99.90
19483;DHT22;9882;51.166;6.992;2023-08-30T00:55:42;18.50;99.90
19483;DHT22;9882;51.166;6.992;2023-08-30T00:58:13;18.50;99.90
19483;DHT22;9882;51.166;6.992;2023-08-30T01:00:43;18.50;99.90
19483;DHT22;9882;51.166;6.992;2023-08-30T01:03:12;18.50;99.90
19483;DHT22;9882;51.166;6.992;2023-08-30T01:05:42;18.50;99.90
19483;DHT22;9882;51.166;6.992;2023-08-30T01:08:12;18.40;99.90
19483;DHT22;9882;51.166;6.992;2023-08-30T01:10:51;18.40;99.90
19483;DHT22;9882;51.166;6.992;2023-08-30T01:13:23;18.40;99.90
19483;DHT22;9882;51.166;6.992;2023-08-30T01:15:55;18.40;99.90
19483;DHT22;9882;51.166;6.992;2023-08-30T01:18:26;18.40;99.90
19483;DHT22;9882;51.166;6.992;2023-08-30T01:21:01;18.30;99.90
19483;DHT22;9882;51.166;6.992;2023-08-30T01:23:39;18.30;99.90
19483;DHT22;9882;51.166;6.992;2023-08-30T01:26:13;18.30;99.90
19483;DHT22;9882;51.166;6.992;2023-08-30T01:28:45;18.30;99.90
19483;DHT22;9882;51.166;6.992;2023-08-30T01:31:16;18.30;99.90
19483;DHT22;9882;51.166;6.992;2023-08-30T01:33:46;18.30;99.90
19483;DHT22;9882;51.166;6.992;2023-08-30T01:36:16;18.20;99.90
19483;DHT22;9882;51.166;6.992;2023-08-30T01:38:45;18.20;99.90
19483;DHT22;9882;51.166;6.992;2023-08-30T01:41:15;18.20;99.90
19483;DHT22;9882;51.166;6.992;2023-08-30T01:43:47;18.20;99.90
19483;DHT22;9882;51.166;6.992;2023-08-30T01:46:17;18.20;99.90
19483;DHT22;9882;51.166;6.992;2023-08-30T01:48:48;18.20;99.90
19483;DHT22;9882;51.166;6.992;2023-08-30T01:51:18;18.20;99.90
19483;DHT22;9882;51.166;6.992;2023-08-30T01:53:51;18.10;99.90
19483;DHT22;9882;51.166;6.992;2023-08-30T01:56:20;18.10;99.90
19483;DHT22;9882;51.166;6.992;2023-08-30T01:58:51;18.10;99.90
19483;DHT22;9882;51.166;6.992;2023-08-30T02:01:20;18.10;99.90
19483;DHT22;9882;51.166;6.992;2023-08-30T02:03:49;18.10;99.90
19483;DHT22;9882;51.166;6.992;2023-08-30T02:06:22;18.00;99.90
19483;DHT22;9882;51.166;6.992;2023-08-30T02:08:55;18.00;99.90
19483;DHT22;9882;51.166;6.992;2023-08-30T02:11:28;18.00;99.90
19483;DHT22;9882;51.166;6.992;2023-08-30T02:14:05;17.90;99.90
19483;DHT22;9882;51.166;6.992;2023-08-30T02:16:36;17.90;99.90
19483;DHT22;9882;51.166;6.992;2023-08-30T02:19:06;17.90;99.90
19483;DHT22;9882;51.166;6.992;2023-08-30T02:21:36;17.90;99.90
19483;DHT22;9882;51.166;6.992;2023-08-30T02:24:06;17.90;99.90
19483;DHT22;9882;51.166;6.992;2023-08-30T02:26:36;17.90;99.90
19483;DHT22;9882;51.166;6.992;2023-08-30T02:29:08;17.90;99.90
19483;DHT22;9882;51.166;6.992;2023-08-30T02:31:37;17.90;99.90
19483;DHT22;9882;51.166;6.992;2023-08-30T02:34:07;17.90;99.90
19483;DHT22;9882;51.166;6.992;2023-08-30T02:36:37;17.80;99.90
19483;DHT22;9882;51.166;6.992;2023-08-30T02:39:06;17.80;99.90
19483;DHT22;9882;51.166;6.992;2023-08-30T02:41:35;17.80;99.90
19483;DHT22;9882;51.166;6.992;2023-08-30T02:44:05;17.70;99.90
19483;DHT22;9882;51.166;6.992;2023-08-30T02:46:36;17.70;99.90
19483;DHT22;9882;51.166;6.992;2023-08-30T02:49:06;17.70;99.90
19483;DHT22;9882;51.166;6.992;2023-08-30T02:51:37;17.60;99.90
19483;DHT22;9882;51.166;6.992;2023-08-30T02:54:06;17.70;99.90
19483;DHT22;9882;51.166;6.992;2023-08-30T02:56:35;17.70;99.90
19483;DHT22;9882;51.166;6.992;2023-08-30T02:59:04;17.70;99.90
19483;DHT22;9882;51.166;6.992;2023-08-30T03:01:33;17.60;99.90
19483;DHT22;9882;51.166;6.992;2023-08-30T03:04:04;17.60;99.90
19483;DHT22;9882;51.166;6.992;2023-08-30T03:06:34;17.60;99.90
19483;DHT22;9882;51.166;6.992;2023-08-30T03:09:04;17.50;99.90
19483;DHT22;9882;51.166;6.992;2023-08-30T03:11:36;17.60;99.90
19483;DHT22;9882;51.166;6.992;2023-08-30T03:14:05;17.50;99.90
19483;DHT22;9882;51.166;6.992;2023-08-30T03:16:34;17.50;99.90
19483;DHT22;9882;51.166;6.992;2023-08-30T03:19:05;17.40;99.90
19483;DHT22;9882;51.166;6.992;2023-08-30T03:21:33;17.40;99.90
19483;DHT22;9882;51.166;6.992;2023-08-30T03:24:03;17.40;99.90
19483;DHT22;9882;51.166;6.992;2023-08-30T03:26:32;17.40;99.90
19483;DHT22;9882;51.166;6.992;2023-08-30T03:29:02;17.40;99.90
19483;DHT22;9882;51.166;6.992;2023-08-30T03:31:31;17.40;99.90
19483;DHT22;9882;51.166;6.992;2023-08-30T03:34:00;17.40;99.90
19483;DHT22;9882;51.166;6.992;2023-08-30T03:36:31;17.40;99.90
19483;DHT22;9882;51.166;6.992;2023-08-30T03:39:00;17.40;99.90
19483;DHT22;9882;51.166;6.992;2023-08-30T03:41:30;17.40;99.90
19483;DHT22;9882;51.166;6.992;2023-08-30T03:44:01;17.40;99.90
19483;DHT22;9882;51.166;6.992;2023-08-30T03:46:30;17.30;99.90
19483;DHT22;9882;51.166;6.992;2023-08-30T03:48:59;17.30;99.90
19483;DHT22;9882;51.166;6.992;2023-08-30T03:51:28;17.30;99.90
19483;DHT22;9882;51.166;6.992;2023-08-30T03:53:59;17.30;99.90
19483;DHT22;9882;51.166;6.992;2023-08-30T03:56:28;17.30;99.90
19483;DHT22;9882;51.166;6.992;2023-08-30T03:58:58;17.20;99.90
19483;DHT22;9882;51.166;6.992;2023-08-30T04:01:27;17.20;99.90
19483;DHT22;9882;51.166;6.992;2023-08-30T04:03:56;17.20;99.90
19483;DHT22;9882;51.166;6.992;2023-08-30T04:06:26;17.20;99.90
19483;DHT22;9882;51.166;6.992;2023-08-30T04:08:55;17.20;99.90
19483;DHT22;9882;51.166;6.992;2023-08-30T04:11:26;17.10;99.90
19483;DHT22;9882;51.166;6.992;2023-08-30T04:13:55;17.10;99.90
19483;DHT22;9882;51.166;6.992;2023-08-30T04:16:24;17.10;99.90
19483;DHT22;9882;51.166;6.992;2023-08-30T04:18:54;17.10;99.90
19483;DHT22;9882;51.166;6.992;2023-08-30T04:21:23;17.10;99.90
19483;DHT22;9882;51.166;6.992;2023-08-30T04:23:52;17.00;99.90
19483;DHT22;9882;51.166;6.992;2023-08-30T04:26:31;17.00;99.90
19483;DHT22;9882;51.166;6.992;2023-08-30T04:29:00;17.00;99.90
19483;DHT22;9882;51.166;6.992;2023-08-30T04:31:30;17.00;99.90
19483;DHT22;9882;51.166;6.992;2023-08-30T04:33:59;17.00;99.90
19483;DHT22;9882;51.166;6.992;2023-08-30T04:36:31;17.00;99.90
19483;DHT22;9882;51.166;6.992;2023-08-30T04:39:01;17.00;99.90
19483;DHT22;9882;51.166;6.992;2023-08-30T04:41:35;17.00;99.90
19483;DHT22;9882;51.166;6.992;2023-08-30T04:44:05;16.90;99.90
19483;DHT22;9882;51.166;6.992;2023-08-30T04:46:34;16.90;99.90
19483;DHT22;9882;51.166;6.992;2023-08-30T04:49:03;16.90;99.90
19483;DHT22;9882;51.166;6.992;2023-08-30T04:51:33;16.90;99.90
19483;DHT22;9882;51.166;6.992;2023-08-30T04:54:02;16.90;99.90
19483;DHT22;9882;51.166;6.992;2023-08-30T04:56:36;16.90;99.90
19483;DHT22;9882;51.166;6.992;2023-08-30T04:59:09;16.90;99.90
19483;DHT22;9882;51.166;6.992;2023-08-30T05:01:42;16.80;99.90
19483;DHT22;9882;51.166;6.992;2023-08-30T05:04:13;16.80;99.90
19483;DHT22;9882;51.166;6.992;2023-08-30T05:06:43;16.80;99.90
19483;DHT22;9882;51.166;6.992;2023-08-30T05:09:13;16.80;99.90
19483;DHT22;9882;51.166;6.992;2023-08-30T05:11:44;16.80;99.90
19483;DHT22;9882;51.166;6.992;2023-08-30T05:14:13;16.80;99.90
19483;DHT22;9882;51.166;6.992;2023-08-30T05:16:42;16.80;99.90
19483;DHT22;9882;51.166;6.992;2023-08-30T05:19:11;16.80;99.90
19483;DHT22;9882;51.166;6.992;2023-08-30T05:21:40;16.70;99.90
19483;DHT22;9882;51.166;6.992;2023-08-30T05:24:09;16.70;99.90
19483;DHT22;9882;51.166;6.992;2023-08-30T05:26:38;16.70;99.90
19483;DHT22;9882;51.166;6.992;2023-08-30T05:29:08;16.70;99.90
19483;DHT22;9882;51.166;6.992;2023-08-30T05:31:37;16.70;99.90
19483;DHT22;9882;51.166;6.992;2023-08-30T05:34:44;16.70;99.90
19483;DHT22;9882;51.166;6.992;2023-08-30T05:37:38;16.70;99.90
19483;DHT22;9882;51.166;6.992;2023-08-30T05:40:38;16.60;99.90
19483;DHT22;9882;51.166;6.992;2023-08-30T05:43:09;16.60;99.90
19483;DHT22;9882;51.166;6.992;2023-08-30T05:45:39;16.60;99.90
19483;DHT22;9882;51.166;6.992;2023-08-30T05:48:08;16.60;99.90
19483;DHT22;9882;51.166;6.992;2023-08-30T05:50:37;16.60;99.90
19483;DHT22;9882;51.166;6.992;2023-08-30T05:53:05;16.60;99.90
19483;DHT22;9882;51.166;6.992;2023-08-30T05:55:34;16.60;99.90
19483;DHT22;9882;51.166;6.992;2023-08-30T05:58:03;16.60;99.90
19483;DHT22;9882;51.166;6.992;2023-08-30T06:00:31;16.60;99.90
19483;DHT22;9882;51.166;6.992;2023-08-30T06:03:01;16.60;99.90
19483;DHT22;9882;51.166;6.992;2023-08-30T06:05:31;16.60;99.90
19483;DHT22;9882;51.166;6.992;2023-08-30T06:07:59;16.40;99.90
19483;DHT22;9882;51.166;6.992;2023-08-30T06:10:28;16.40;99.90
19483;DHT22;9882;51.166;6.992;2023-08-30T06:12:56;16.40;99.90
19483;DHT22;9882;51.166;6.992;2023-08-30T06:15:25;16.50;99.90
19483;DHT22;9882;51.166;6.992;2023-08-30T06:17:53;16.50;99.90
19483;DHT22;9882;51.166;6.992;2023-08-30T06:20:24;16.60;99.90
19483;DHT22;9882;51.166;6.992;2023-08-30T06:22:52;16.50;99.90
19483;DHT22;9882;51.166;6.992;2023-08-30T06:25:21;16.50;99.90
19483;DHT22;9882;51.166;6.992;2023-08-30T06:27:58;16.60;99.90
19483;DHT22;9882;51.166;6.992;2023-08-30T06:30:28;16.50;99.90
19483;DHT22;9882;51.166;6.992;2023-08-30T06:32:57;16.50;99.90
19483;DHT22;9882;51.166;6.992;2023-08-30T06:35:27;16.50;99.90
19483;DHT22;9882;51.166;6.992;2023-08-30T06:37:56;16.40;99.90
19483;DHT22;9882;51.166;6.992;2023-08-30T06:40:25;16.40;99.90
19483;DHT22;9882;51.166;6.992;2023-08-30T06:42:53;16.40;99.90
19483;DHT22;9882;51.166;6.992;2023-08-30T06:45:22;16.30;99.90
19483;DHT22;9882;51.166;6.992;2023-08-30T06:47:50;16.30;99.90
19483;DHT22;9882;51.166;6.992;2023-08-30T06:50:20;16.40;99.90
19483;DHT22;9882;51.166;6.992;2023-08-30T06:52:50;16.20;99.90
19483;DHT22;9882;51.166;6.992;2023-08-30T06:55:18;16.10;99.90
19483;DHT22;9882;51.166;6.992;2023-08-30T06:57:48;16.10;99.90
19483;DHT22;9882;51.166;6.992;2023-08-30T07:00:18;16.20;99.90
19483;DHT22;9882;51.166;6.992;2023-08-30T07:02:46;16.20;99.90
19483;DHT22;9882;51.166;6.992;2023-08-30T07:05:15;16.30;99.90
19483;DHT22;9882;51.166;6.992;2023-08-30T07:07:44;16.20;99.90
19483;DHT22;9882;51.166;6.992;2023-08-30T07:10:13;16.10;99.90
19483;DHT22;9882;51.166;6.992;2023-08-30T07:12:42;16.00;99.90
19483;DHT22;9882;51.166;6.992;2023-08-30T07:15:13;16.00;99.90
19483;DHT22;9882;51.166;6.992;2023-08-30T07:17:43;15.90;99.90
19483;DHT22;9882;51.166;6.992;2023-08-30T07:20:18;15.90;99.90
19483;DHT22;9882;51.166;6.992;2023-08-30T07:22:47;15.90;99.90
19483;DHT22;9882;51.166;6.992;2023-08-30T07:25:17;15.80;99.90
19483;DHT22;9882;51.166;6.992;2023-08-30T07:27:45;15.90;99.90
19483;DHT22;9882;51.166;6.992;2023-08-30T07:30:14;15.90;99.90
19483;DHT22;9882;51.166;6.992;2023-08-30T07:32:43;15.90;99.90
19483;DHT22;9882;51.166;6.992;2023-08-30T07:35:11;15.90;99.90
19483;DHT22;9882;51.166;6.992;2023-08-30T07:37:41;15.90;99.90
19483;DHT22;9882;51.166;6.992;2023-08-30T07:40:10;16.00;99.90
19483;DHT22;9882;51.166;6.992;2023-08-30T07:42:40;16.00;99.90
19483;DHT22;9882;51.166;6.992;2023-08-30T07:45:09;15.90;99.90
19483;DHT22;9882;51.166;6.992;2023-08-30T07:47:38;16.00;99.90
19483;DHT22;9882;51.166;6.992;2023-08-30T07:50:07;16.10;99.90
19483;DHT22;9882;51.166;6.992;2023-08-30T07:52:36;16.10;99.90
19483;DHT22;9882;51.166;6.992;2023-08-30T07:55:11;16.10;99.90
19483;DHT22;9882;51.166;6.992;2023-08-30T07:57:41;16.10;99.90
19483;DHT22;9882;51.166;6.992;2023-08-30T08:00:10;16.20;99.90
19483;DHT22;9882;51.166;6.992;2023-08-30T08:02:39;16.20;99.90
19483;DHT22;9882;51.166;6.992;2023-08-30T08:05:08;16.30;99.90
19483;DHT22;9882;51.166;6.992;2023-08-30T08:07:38;16.20;99.90
19483;DHT22;9882;51.166;6.992;2023-08-30T08:10:08;16.20;99.90
19483;DHT22;9882;51.166;6.992;2023-08-30T08:12:37;16.20;99.90
19483;DHT22;9882;51.166;6.992;2023-08-30T08:15:07;16.40;99.90
19483;DHT22;9882;51.166;6.992;2023-08-30T08:17:36;16.40;99.90
19483;DHT22;9882;51.166;6.992;2023-08-30T08:20:05;16.40;99.90
19483;DHT22;9882;51.166;6.992;2023-08-30T08:22:34;16.50;99.90
19483;DHT22;9882;51.166;6.992;2023-08-30T08:25:03;16.50;99.90
19483;DHT22;9882;51.166;6.992;2023-08-30T08:27:31;16.60;99.90
19483;DHT22;9882;51.166;6.992;2023-08-30T08:30:00;16.60;99.90
19483;DHT22;9882;51.166;6.992;2023-08-30T08:32:30;16.70;99.90
19483;DHT22;9882;51.166;6.992;2023-08-30T08:34:58;16.80;99.90
19483;DHT22;9882;51.166;6.992;2023-08-30T08:37:27;16.90;99.90
19483;DHT22;9882;51.166;6.992;2023-08-30T08:39:55;17.10;99.90
19483;DHT22;9882;51.166;6.992;2023-08-30T08:42:24;17.00;99.90
19483;DHT22;9882;51.166;6.992;2023-08-30T08:44:54;17.00;99.90
19483;DHT22;9882;51.166;6.992;2023-08-30T08:47:23;17.10;99.90
19483;DHT22;9882;51.166;6.992;2023-08-30T08:49:54;17.10;99.90
19483;DHT22;9882;51.166;6.992;2023-08-30T08:52:23;17.00;99.90
19483;DHT22;9882;51.166;6.992;2023-08-30T08:54:56;17.10;99.90
19483;DHT22;9882;51.166;6.992;2023-08-30T08:57:28;17.30;99.90
19483;DHT22;9882;51.166;6.992;2023-08-30T08:59:58;17.50;99.90
19483;DHT22;9882;51.166;6.992;2023-08-30T09:02:27;17.40;99.90
19483;DHT22;9882;51.166;6.992;2023-08-30T09:04:59;17.40;99.90
19483;DHT22;9882;51.166;6.992;2023-08-30T09:07:28;17.40;99.90
19483;DHT22;9882;51.166;6.992;2023-08-30T09:09:57;17.50;99.90
19483;DHT22;9882;51.166;6.992;2023-08-30T09:12:26;17.50;99.90
19483;DHT22;9882;51.166;6.992;2023-08-30T09:14:54;17.60;99.90
19483;DHT22;9882;51.166;6.992;2023-08-30T09:17:34;17.90;99.90
19483;DHT22;9882;51.166;6.992;2023-08-30T09:20:09;18.10;99.90
19483;DHT22;9882;51.166;6.992;2023-08-30T09:22:38;18.00;99.90
19483;DHT22;9882;51.166;6.992;2023-08-30T09:25:09;18.10;99.90
19483;DHT22;9882;51.166;6.992;2023-08-30T09:27:37;18.00;99.90
19483;DHT22;9882;51.166;6.992;2023-08-30T09:30:09;17.90;99.90
19483;DHT22;9882;51.166;6.992;2023-08-30T09:32:40;18.00;99.90
19483;DHT22;9882;51.166;6.992;2023-08-30T09:35:10;17.90;99.90
19483;DHT22;9882;51.166;6.992;2023-08-30T09:37:39;17.90;99.90
19483;DHT22;9882;51.166;6.992;2023-08-30T09:40:08;17.80;99.90
19483;DHT22;9882;51.166;6.992;2023-08-30T09:42:40;18.00;99.90
19483;DHT22;9882;51.166;6.992;2023-08-30T09:45:17;18.00;99.90
19483;DHT22;9882;51.166;6.992;2023-08-30T09:47:47;17.90;99.90
19483;DHT22;9882;51.166;6.992;2023-08-30T09:50:19;18.00;99.90
19483;DHT22;9882;51.166;6.992;2023-08-30T09:52:48;17.80;99.90
19483;DHT22;9882;51.166;6.992;2023-08-30T09:55:19;17.60;99.90
19483;DHT22;9882;51.166;6.992;2023-08-30T09:57:49;17.30;99.90
19483;DHT22;9882;51.166;6.992;2023-08-30T10:00:18;17.20;99.90
19483;DHT22;9882;51.166;6.992;2023-08-30T10:02:48;17.10;99.90
19483;DHT22;9882;51.166;6.992;2023-08-30T10:05:31;17.20;99.90
19483;DHT22;9882;51.166;6.992;2023-08-30T10:08:00;17.30;99.90
19483;DHT22;9882;51.166;6.992;2023-08-30T10:10:31;17.40;99.90
19483;DHT22;9882;51.166;6.992;2023-08-30T10:13:01;17.40;99.90
19483;DHT22;9882;51.166;6.992;2023-08-30T10:15:39;17.40;99.90
19483;DHT22;9882;51.166;6.992;2023-08-30T10:18:09;17.30;99.90
19483;DHT22;9882;51.166;6.992;2023-08-30T10:20:41;17.10;99.90
19483;DHT22;9882;51.166;6.992;2023-08-30T10:23:10;17.10;99.90
19483;DHT22;9882;51.166;6.992;2023-08-30T10:25:40;17.00;99.90
19483;DHT22;9882;51.166;6.992;2023-08-30T10:28:10;17.10;99.90
19483;DHT22;9882;51.166;6.992;2023-08-30T10:30:39;17.00;99.90
19483;DHT22;9882;51.166;6.992;2023-08-30T10:33:12;17.20;99.90
19483;DHT22;9882;51.166;6.992;2023-08-30T10:35:48;17.40;99.90
19483;DHT22;9882;51.166;6.992;2023-08-30T10:38:25;17.20;99.90
19483;DHT22;9882;51.166;6.992;2023-08-30T10:40:55;16.80;99.90
19483;DHT22;9882;51.166;6.992;2023-08-30T10:43:35;17.00;99.90
19483;DHT22;9882;51.166;6.992;2023-08-30T10:46:05;17.20;99.90
19483;DHT22;9882;51.166;6.992;2023-08-30T10:48:39;17.30;99.90
19483;DHT22;9882;51.166;6.992;2023-08-30T10:51:20;17.40;99.90
19483;DHT22;9882;51.166;6.992;2023-08-30T10:53:55;17.50;99.90
19483;DHT22;9882;51.166;6.992;2023-08-30T10:56:29;17.60;99.90
19483;DHT22;9882;51.166;6.992;2023-08-30T10:58:58;17.60;99.90
19483;DHT22;9882;51.166;6.992;2023-08-30T11:01:27;17.60;99.90
19483;DHT22;9882;51.166;6.992;2023-08-30T11:03:56;17.60;99.90
19483;DHT22;9882;51.166;6.992;2023-08-30T11:06:30;17.60;99.90
19483;DHT22;9882;51.166;6.992;2023-08-30T11:08:58;17.10;99.90
19483;DHT22;9882;51.166;6.992;2023-08-30T11:11:27;16.50;99.90
19483;DHT22;9882;51.166;6.992;2023-08-30T11:14:03;16.60;99.90
19483;DHT22;9882;51.166;6.992;2023-08-30T11:16:33;15.80;99.90
19483;DHT22;9882;51.166;6.992;2023-08-30T11:19:01;15.60;99.90
19483;DHT22;9882;51.166;6.992;2023-08-30T11:21:33;15.80;99.90
19483;DHT22;9882;51.166;6.992;2023-08-30T11:24:03;15.60;99.90
19483;DHT22;9882;51.166;6.992;2023-08-30T11:26:32;15.80;99.90
19483;DHT22;9882;51.166;6.992;2023-08-30T11:29:04;15.80;99.90
19483;DHT22;9882;51.166;6.992;2023-08-30T11:31:33;16.00;99.90
19483;DHT22;9882;51.166;6.992;2023-08-30T11:34:02;15.90;99.90
19483;DHT22;9882;51.166;6.992;2023-08-30T11:36:34;16.00;99.90
19483;DHT22;9882;51.166;6.992;2023-08-30T11:39:04;15.80;99.90
19483;DHT22;9882;51.166;6.992;2023-08-30T11:41:32;16.20;99.90
19483;DHT22;9882;51.166;6.992;2023-08-30T11:44:01;16.30;99.90
19483;DHT22;9882;51.166;6.992;2023-08-30T11:46:30;16.40;99.90
19483;DHT22;9882;51.166;6.992;2023-08-30T11:49:00;16.30;99.90
19483;DHT22;9882;51.166;6.992;2023-08-30T11:51:30;16.40;99.90
19483;DHT22;9882;51.166;6.992;2023-08-30T11:54:01;16.40;99.90
19483;DHT22;9882;51.166;6.992;2023-08-30T11:56:30;16.40;99.90
19483;DHT22;9882;51.166;6.992;2023-08-30T11:58:59;16.10;99.90
19483;DHT22;9882;51.166;6.992;2023-08-30T12:01:27;16.20;99.90
19483;DHT22;9882;51.166;6.992;2023-08-30T12:03:56;16.20;99.90
19483;DHT22;9882;51.166;6.992;2023-08-30T12:06:25;16.30;99.90
19483;DHT22;9882;51.166;6.992;2023-08-30T12:08:57;16.50;99.90
19483;DHT22;9882;51.166;6.992;2023-08-30T12:11:31;16.40;99.90
19483;DHT22;9882;51.166;6.992;2023-08-30T12:14:02;16.60;99.90
19483;DHT22;9882;51.166;6.992;2023-08-30T12:16:30;16.60;99.90
19483;DHT22;9882;51.166;6.992;2023-08-30T12:19:07;16.10;99.90
19483;DHT22;9882;51.166;6.992;2023-08-30T12:21:42;16.30;99.90
19483;DHT22;9882;51.166;6.992;2023-08-30T12:24:10;16.50;99.90
19483;DHT22;9882;51.166;6.992;2023-08-30T12:26:40;16.50;99.90
19483;DHT22;9882;51.166;6.992;2023-08-30T12:29:09;16.40;99.90
19483;DHT22;9882;51.166;6.992;2023-08-30T12:31:37;16.60;99.90
19483;DHT22;9882;51.166;6.992;2023-08-30T12:34:06;16.60;99.90
19483;DHT22;9882;51.166;6.992;2023-08-30T12:36:34;16.20;99.90
19483;DHT22;9882;51.166;6.992;2023-08-30T12:39:03;16.60;99.90
19483;DHT22;9882;51.166;6.992;2023-08-30T12:41:32;16.50;99.90
19483;DHT22;9882;51.166;6.992;2023-08-30T12:44:02;16.50;99.90
19483;DHT22;9882;51.166;6.992;2023-08-30T12:46:31;16.60;99.90
19483;DHT22;9882;51.166;6.992;2023-08-30T12:48:59;16.70;99.90
19483;DHT22;9882;51.166;6.992;2023-08-30T12:51:28;16.70;99.90
19483;DHT22;9882;51.166;6.992;2023-08-30T12:53:57;16.60;99.90
19483;DHT22;9882;51.166;6.992;2023-08-30T12:56:26;16.60;99.90
19483;DHT22;9882;51.166;6.992;2023-08-30T12:58:54;16.80;99.90
19483;DHT22;9882;51.166;6.992;2023-08-30T13:01:24;16.60;99.90
19483;DHT22;9882;51.166;6.992;2023-08-30T13:03:53;16.60;99.90
19483;DHT22;9882;51.166;6.992;2023-08-30T13:06:21;16.50;99.90
19483;DHT22;9882;51.166;6.992;2023-08-30T13:08:50;16.50;99.90
19483;DHT22;9882;51.166;6.992;2023-08-30T13:11:18;16.40;99.90
19483;DHT22;9882;51.166;6.992;2023-08-30T13:13:47;16.30;99.90
19483;DHT22;9882;51.166;6.992;2023-08-30T13:16:15;16.30;99.90
19483;DHT22;9882;51.166;6.992;2023-08-30T13:18:45;16.20;99.90
19483;DHT22;9882;51.166;6.992;2023-08-30T13:21:14;16.20;99.90
19483;DHT22;9882;51.166;6.992;2023-08-30T13:23:43;16.20;99.90
19483;DHT22;9882;51.166;6.992;2023-08-30T13:26:12;16.20;99.90
19483;DHT22;9882;51.166;6.992;2023-08-30T13:28:40;16.40;99.90
19483;DHT22;9882;51.166;6.992;2023-08-30T13:31:09;16.30;99.90
19483;DHT22;9882;51.166;6.992;2023-08-30T13:33:37;16.50;99.90
19483;DHT22;9882;51.166;6.992;2023-08-30T13:36:07;16.30;99.90
19483;DHT22;9882;51.166;6.992;2023-08-30T13:38:36;16.60;99.90
19483;DHT22;9882;51.166;6.992;2023-08-30T13:41:04;16.50;99.90
19483;DHT22;9882;51.166;6.992;2023-08-30T13:43:33;16.50;99.90
19483;DHT22;9882;51.166;6.992;2023-08-30T13:46:01;16.70;99.90
19483;DHT22;9882;51.166;6.992;2023-08-30T13:48:30;16.90;99.90
19483;DHT22;9882;51.166;6.992;2023-08-30T13:50:58;16.90;99.90
19483;DHT22;9882;51.166;6.992;2023-08-30T13:53:28;17.00;99.90
19483;DHT22;9882;51.166;6.992;2023-08-30T13:55:57;16.80;99.90
19483;DHT22;9882;51.166;6.992;2023-08-30T13:58:26;16.60;99.90
19483;DHT22;9882;51.166;6.992;2023-08-30T14:00:54;16.60;99.90
19483;DHT22;9882;51.166;6.992;2023-08-30T14:03:23;16.60;99.90
19483;DHT22;9882;51.166;6.992;2023-08-30T14:05:51;16.70;99.90
19483;DHT22;9882;51.166;6.992;2023-08-30T14:08:20;16.60;99.90
19483;DHT22;9882;51.166;6.992;2023-08-30T14:10:50;16.80;99.90
19483;DHT22;9882;51.166;6.992;2023-08-30T14:13:18;17.00;99.90
19483;DHT22;9882;51.166;6.992;2023-08-30T14:15:47;17.00;99.90
19483;DHT22;9882;51.166;6.992;2023-08-30T14:18:16;16.90;99.90
19483;DHT22;9882;51.166;6.992;2023-08-30T14:20:44;16.90;99.90
19483;DHT22;9882;51.166;6.992;2023-08-30T14:23:13;16.90;99.90
19483;DHT22;9882;51.166;6.992;2023-08-30T14:25:42;16.70;99.90
19483;DHT22;9882;51.166;6.992;2023-08-30T14:28:12;16.60;99.90
19483;DHT22;9882;51.166;6.992;2023-08-30T14:30:41;16.50;99.90
19483;DHT22;9882;51.166;6.992;2023-08-30T14:33:10;16.40;99.90
19483;DHT22;9882;51.166;6.992;2023-08-30T14:35:41;16.40;99.90
19483;DHT22;9882;51.166;6.992;2023-08-30T14:38:10;16.50;99.90
19483;DHT22;9882;51.166;6.992;2023-08-30T14:40:38;16.70;99.90
19483;DHT22;9882;51.166;6.992;2023-08-30T14:43:07;16.30;99.90
19483;DHT22;9882;51.166;6.992;2023-08-30T14:45:37;16.30;99.90
19483;DHT22;9882;51.166;6.992;2023-08-30T14:48:06;16.00;99.90
19483;DHT22;9882;51.166;6.992;2023-08-30T14:50:35;16.20;99.90
19483;DHT22;9882;51.166;6.992;2023-08-30T14:53:04;16.20;99.90
19483;DHT22;9882;51.166;6.992;2023-08-30T14:55:33;16.20;99.90
19483;DHT22;9882;51.166;6.992;2023-08-30T14:58:02;16.00;99.90
19483;DHT22;9882;51.166;6.992;2023-08-30T15:00:31;16.00;99.90
19483;DHT22;9882;51.166;6.992;2023-08-30T15:03:01;16.30;99.90
19483;DHT22;9882;51.166;6.992;2023-08-30T15:05:30;16.20;99.90
19483;DHT22;9882;51.166;6.992;2023-08-30T15:07:58;16.40;99.90
19483;DHT22;9882;51.166;6.992;2023-08-30T15:10:27;16.60;99.90
19483;DHT22;9882;51.166;6.992;2023-08-30T15:12:56;16.50;99.90
19483;DHT22;9882;51.166;6.992;2023-08-30T15:15:24;15.80;99.90
19483;DHT22;9882;51.166;6.992;2023-08-30T15:17:53;15.80;99.90
19483;DHT22;9882;51.166;6.992;2023-08-30T15:20:22;16.10;99.90
19483;DHT22;9882;51.166;6.992;2023-08-30T15:22:51;16.30;99.90
19483;DHT22;9882;51.166;6.992;2023-08-30T15:25:20;16.40;99.90
19483;DHT22;9882;51.166;6.992;2023-08-30T15:27:48;16.50;99.90
19483;DHT22;9882;51.166;6.992;2023-08-30T15:30:17;16.70;99.90
19483;DHT22;9882;51.166;6.992;2023-08-30T15:32:46;17.10;99.90
19483;DHT22;9882;51.166;6.992;2023-08-30T15:35:15;17.70;99.90
19483;DHT22;9882;51.166;6.992;2023-08-30T15:37:44;18.30;99.90
19483;DHT22;9882;51.166;6.992;2023-08-30T15:40:13;18.90;99.90
19483;DHT22;9882;51.166;6.992;2023-08-30T15:42:42;19.10;99.90
19483;DHT22;9882;51.166;6.992;2023-08-30T15:45:10;19.10;99.90
19483;DHT22;9882;51.166;6.992;2023-08-30T15:47:39;19.40;99.90
19483;DHT22;9882;51.166;6.992;2023-08-30T15:50:07;19.30;99.90
19483;DHT22;9882;51.166;6.992;2023-08-30T15:52:36;19.60;99.90
19483;DHT22;9882;51.166;6.992;2023-08-30T15:55:07;19.00;99.90
19483;DHT22;9882;51.166;6.992;2023-08-30T15:57:36;19.30;99.90
19483;DHT22;9882;51.166;6.992;2023-08-30T16:00:05;19.20;99.90
19483;DHT22;9882;51.166;6.992;2023-08-30T16:02:35;19.30;99.90